Hovedside
METAR-TAF:

METAR-TAF

Lufthavner :

Jersey,

breddegrad: 49-13N, lengdegrad: 002-12W, høyde over havet: 84 m

Gjeldene værobservasjon

Denne rapporten ble laget for 27 minutter siden, klokken 14:50 UTC
Vind 11 kt fra Vest-sørvest
Temperatur 9°C
Luftfuktighet 81%
Trykk 1021 hPa
Sikt 10 km eller mer
Få skyer i en høyde av 1800 ft

METAR: EGJJ 051450Z 24011KT 9999 FEW018 09/06 Q1021

Tid: 15:17 (15:17 UTC)

Varsel

Denne rapporten ble laget for 1 time og 17 minutter siden, klokken 14:00 UTC
Varsel gyldig fra 05. klokken 15 UTC til 06. klokken 00 UTC
Vind 12 kt fra Sørvest
Sikt 10 km eller mer
Få skyer i en høyde av 1500 ft
Spredte skyer i en høyde av 3000 ft
Blir
fra 05. klokken 20 UTC til 05. klokken 22 UTC
Vind 15 kt fra Sørvest med vindkast opp mot 25 kt
Midlertidig
fra 05. klokken 20 UTC til 06. klokken 00 UTC
Sikt: 9000 m
Brutte skyer i en høyde av 1500 ft
regn, duskregn

TAF: EGJJ 051400Z 0515/0600 23012KT 9999 FEW015 SCT030 BECMG 0520/0522 23015G25KT TEMPO 0520/0600 9000 RADZ BKN015

Værobservasjoner og værvarsel for over 4000 flyplasser (METAR- og TAF-rapporter).

Tilgjengelige stasjoner er representert av de røde og gule prikkene på kartet.

Hold musepekeren over prikken for å se navnet på stasjonen.

Klikk så for å se værobservasjoner og -varsler.

For å forandre kartet kan du klikke på den grønne knappen med svart kryss for å zoome inn, på den grønne knappen med strek for å zoome ut, eller på de grønne pilene for å se tilstøtende kart.


METAR-TAF: